Time;durP1;ratioP1;P1;durP2;ratioP2;P2;SDS_P1;SDS_P2;PMS_P1;PMS_P2;Temp;Humidity;BMP_temperature;BMP_pressure;BME280_temperature;BME280_humidity;BME280_pressure;Samples;Min_cycle;Max_cycle;Signal;HPM_P1;HPM_P2
2022/11/06 00:00:40;;;;;;;14.07;10.00;;;;;;;;;;5094568;28;20830;-71
2022/11/06 00:03:07;;;;;;;15.80;10.03;;;;;;;;;;5094642;28;20463;-71
2022/11/06 00:08:27;;;;;;;13.97;10.50;;;;;;;;;;5094348;28;20485;-71
2022/11/06 00:10:55;;;;;;;12.97;9.53;;;;;;;;;;5094226;28;20452;-71
2022/11/06 00:13:23;;;;;;;15.63;9.03;;;;;;;;;;5094064;28;20466;-72
2022/11/06 00:15:50;;;;;;;13.83;10.27;;;;;;;;;;5093661;28;20467;-71
2022/11/06 00:18:17;;;;;;;12.70;9.00;;;;;;;;;;5094057;28;20450;-71
2022/11/06 00:20:44;;;;;;;16.67;9.67;;;;;;;;;;5094095;28;21075;-71
2022/11/06 00:23:11;;;;;;;14.03;9.83;;;;;;;;;;5093982;28;20439;-71
2022/11/06 00:25:40;;;;;;;16.57;10.17;;;;;;;;;;5091286;28;20470;-71
2022/11/06 00:28:09;;;;;;;14.27;8.93;;;;;;;;;;5094035;28;20535;-71
2022/11/06 00:30:36;;;;;;;12.70;9.40;;;;;;;;;;5093701;28;20450;-71
2022/11/06 00:33:04;;;;;;;13.00;10.10;;;;;;;;;;5094086;28;20450;-71
2022/11/06 00:35:31;;;;;;;17.10;9.83;;;;;;;;;;5093059;28;20465;-71
2022/11/06 00:37:58;;;;;;;15.10;10.57;;;;;;;;;;5093577;28;20443;-71
2022/11/06 00:40:25;;;;;;;13.40;9.53;;;;;;;;;;5093700;28;20460;-71
2022/11/06 00:42:56;;;;;;;12.83;10.20;;;;;;;;;;5093670;28;20454;-71
2022/11/06 00:45:24;;;;;;;13.93;10.00;;;;;;;;;;5092944;28;20465;-71
2022/11/06 00:47:51;;;;;;;16.07;10.40;;;;;;;;;;5093518;28;20482;-71
2022/11/06 00:50:19;;;;;;;19.30;11.57;;;;;;;;;;5093653;28;20446;-71
2022/11/06 00:52:46;;;;;;;20.20;13.57;;;;;;;;;;5093333;28;20451;-71
2022/11/06 00:55:13;;;;;;;15.57;10.87;;;;;;;;;;5092849;28;20461;-71
2022/11/06 00:57:40;;;;;;;29.87;15.10;;;;;;;;;;5092907;28;20448;-71
2022/11/06 01:00:10;;;;;;;14.50;10.90;;;;;;;;;;5093432;28;20450;-71
2022/11/06 01:02:38;;;;;;;16.73;11.47;;;;;;;;;;5093164;28;20455;-71
2022/11/06 01:05:06;;;;;;;18.93;10.60;;;;;;;;;;5092698;28;20826;-71
2022/11/06 01:07:33;;;;;;;16.07;11.13;;;;;;;;;;5093110;28;20592;-71
2022/11/06 01:10:00;;;;;;;19.10;12.60;;;;;;;;;;5093558;28;20451;-71
2022/11/06 01:12:27;;;;;;;23.10;11.77;;;;;;;;;;5093113;28;20446;-71
2022/11/06 01:14:54;;;;;;;20.50;12.77;;;;;;;;;;5092373;28;20465;-71
2022/11/06 01:17:21;;;;;;;21.70;13.50;;;;;;;;;;5092976;28;20463;-71
2022/11/06 01:19:50;;;;;;;20.73;11.67;;;;;;;;;;5092916;28;20958;-71
2022/11/06 01:22:17;;;;;;;17.83;12.00;;;;;;;;;;5093089;28;20454;-71
2022/11/06 01:24:44;;;;;;;18.33;12.30;;;;;;;;;;5090108;28;20456;-71
2022/11/06 01:27:11;;;;;;;21.40;12.30;;;;;;;;;;5092830;28;20467;-71
2022/11/06 01:29:38;;;;;;;21.50;13.70;;;;;;;;;;5092896;28;20454;-72
2022/11/06 01:32:07;;;;;;;23.13;13.40;;;;;;;;;;5092887;28;20461;-71
2022/11/06 01:34:34;;;;;;;16.20;11.10;;;;;;;;;;5092106;28;20986;-71
2022/11/06 01:37:02;;;;;;;18.70;12.80;;;;;;;;;;5092651;28;20476;-71
2022/11/06 01:39:30;;;;;;;19.83;12.27;;;;;;;;;;5092672;28;20454;-71
2022/11/06 01:41:57;;;;;;;19.10;12.30;;;;;;;;;;5092769;28;20447;-71
2022/11/06 01:44:42;;;;;;;28.30;14.57;;;;;;;;;;5092029;28;20451;-71
2022/11/06 01:47:19;;;;;;;20.50;13.30;;;;;;;;;;5092620;28;20975;-71
2022/11/06 01:49:46;;;;;;;17.67;12.60;;;;;;;;;;5092561;28;20454;-71
2022/11/06 01:52:15;;;;;;;23.53;13.57;;;;;;;;;;5092630;28;20450;-71
2022/11/06 01:54:44;;;;;;;22.57;13.70;;;;;;;;;;5091787;28;20454;-71
2022/11/06 01:57:12;;;;;;;23.50;13.70;;;;;;;;;;5092510;28;20470;-71
2022/11/06 01:59:42;;;;;;;21.07;13.30;;;;;;;;;;5092466;28;20481;-71
2022/11/06 02:02:09;;;;;;;18.63;11.90;;;;;;;;;;5092536;28;20450;-71
2022/11/06 02:04:37;;;;;;;19.20;12.10;;;;;;;;;;5091765;28;20974;-71
2022/11/06 02:07:06;;;;;;;17.63;11.17;;;;;;;;;;5092236;28;20471;-71
2022/11/06 02:09:35;;;;;;;16.30;11.90;;;;;;;;;;5093291;28;20447;-71
2022/11/06 02:12:06;;;;;;;19.27;10.83;;;;;;;;;;5096577;28;20457;-71
2022/11/06 02:14:35;;;;;;;21.73;13.70;;;;;;;;;;5095751;28;20454;-71
2022/11/06 02:17:05;;;;;;;25.60;13.57;;;;;;;;;;5096397;28;20462;-71
2022/11/06 02:19:40;;;;;;;23.13;14.30;;;;;;;;;;5096630;28;20438;-71
2022/11/06 02:22:13;;;;;;;22.47;14.47;;;;;;;;;;5096433;28;20943;-71
2022/11/06 02:25:01;;;;;;;23.03;14.33;;;;;;;;;;5093638;28;20631;-71
2022/11/06 02:27:30;;;;;;;21.67;13.37;;;;;;;;;;5096148;28;20998;-71
2022/11/06 02:29:59;;;;;;;25.20;13.30;;;;;;;;;;5096362;28;20978;-71
2022/11/06 02:32:28;;;;;;;30.53;14.83;;;;;;;;;;5096213;28;20447;-71
2022/11/06 02:34:56;;;;;;;18.80;12.27;;;;;;;;;;5095554;28;20450;-71
2022/11/06 02:37:27;;;;;;;25.67;13.60;;;;;;;;;;5096021;28;20833;-71
2022/11/06 02:39:55;;;;;;;20.67;14.63;;;;;;;;;;5096033;28;20469;-71
2022/11/06 02:42:24;;;;;;;24.33;14.20;;;;;;;;;;5096139;28;20452;-71
2022/11/06 02:44:53;;;;;;;25.30;14.60;;;;;;;;;;5095222;28;20450;-71
2022/11/06 02:47:23;;;;;;;22.33;13.20;;;;;;;;;;5095906;28;20478;-71
2022/11/06 02:49:52;;;;;;;23.93;13.60;;;;;;;;;;5095953;28;20459;-71
2022/11/06 02:52:21;;;;;;;27.30;13.60;;;;;;;;;;5095889;28;20453;-71
2022/11/06 02:54:50;;;;;;;24.87;13.40;;;;;;;;;;5095201;28;20954;-71
2022/11/06 02:57:19;;;;;;;25.07;13.90;;;;;;;;;;5095599;28;20466;-71
2022/11/06 02:59:49;;;;;;;22.57;13.00;;;;;;;;;;5095609;28;20829;-71
2022/11/06 03:02:21;;;;;;;24.60;14.63;;;;;;;;;;5095727;28;20450;-71
2022/11/06 03:04:51;;;;;;;21.80;13.43;;;;;;;;;;5094865;28;20537;-71
2022/11/06 03:07:20;;;;;;;25.57;14.93;;;;;;;;;;5095514;28;21013;-71
2022/11/06 03:09:48;;;;;;;18.13;11.63;;;;;;;;;;5095244;28;20539;-71
2022/11/06 03:12:19;;;;;;;22.40;14.17;;;;;;;;;;5095477;28;20446;-71
2022/11/06 03:14:51;;;;;;;22.60;12.60;;;;;;;;;;5094738;28;20463;-71
2022/11/06 03:17:22;;;;;;;24.10;15.30;;;;;;;;;;5095319;28;20481;-71
2022/11/06 03:19:50;;;;;;;24.90;13.93;;;;;;;;;;5095042;28;20461;-71
2022/11/06 03:22:24;;;;;;;24.17;16.53;;;;;;;;;;5095247;28;20457;-71
2022/11/06 03:24:54;;;;;;;21.40;13.37;;;;;;;;;;5092522;28;20454;-71
2022/11/06 03:27:24;;;;;;;20.83;13.97;;;;;;;;;;5095267;28;20462;-71
2022/11/06 03:29:55;;;;;;;20.17;13.60;;;;;;;;;;5094901;28;20482;-71
2022/11/06 03:32:27;;;;;;;19.87;13.10;;;;;;;;;;5095213;28;20826;-71
2022/11/06 03:34:55;;;;;;;24.80;14.40;;;;;;;;;;5094347;28;20966;-71
2022/11/06 03:37:26;;;;;;;18.27;13.33;;;;;;;;;;5094992;28;20467;-71
2022/11/06 03:39:55;;;;;;;21.90;14.23;;;;;;;;;;5094903;28;21297;-71
2022/11/06 03:42:23;;;;;;;21.03;14.37;;;;;;;;;;5094854;28;20446;-71
2022/11/06 03:44:53;;;;;;;24.90;13.90;;;;;;;;;;5094200;28;20791;-71
2022/11/06 03:47:22;;;;;;;19.07;12.40;;;;;;;;;;5094781;28;20470;-71
2022/11/06 03:49:54;;;;;;;19.63;12.63;;;;;;;;;;5094379;28;20486;-71
2022/11/06 03:52:25;;;;;;;17.77;12.80;;;;;;;;;;5094753;28;20455;-71
2022/11/06 03:54:54;;;;;;;19.80;12.03;;;;;;;;;;5093919;28;20442;-71
2022/11/06 03:57:24;;;;;;;20.90;12.10;;;;;;;;;;5094602;28;20470;-71
2022/11/06 03:59:54;;;;;;;20.57;14.03;;;;;;;;;;5094507;28;20455;-71
2022/11/06 04:02:23;;;;;;;23.80;13.60;;;;;;;;;;5094442;28;20465;-71
2022/11/06 04:04:53;;;;;;;23.97;13.10;;;;;;;;;;5093833;28;20447;-71
2022/11/06 04:07:23;;;;;;;25.30;15.07;;;;;;;;;;5094325;28;20478;-71
2022/11/06 04:15:25;;;;;;;21.50;14.60;;;;;;;;;;5093115;28;20491;-71
2022/11/06 04:17:52;;;;;;;20.73;14.10;;;;;;;;;;5094052;28;20457;-71
2022/11/06 04:23:12;;;;;;;27.47;19.30;;;;;;;;;;5094124;28;20434;-71
2022/11/06 04:28:33;;;;;;;30.73;19.53;;;;;;;;;;5093955;28;20482;-71
2022/11/06 04:31:05;;;;;;;23.20;12.97;;;;;;;;;;5093995;28;20450;-71
2022/11/06 04:33:35;;;;;;;21.20;13.70;;;;;;;;;;5092474;28;20940;-71
2022/11/06 04:36:07;;;;;;;22.53;13.60;;;;;;;;;;5093860;28;20467;-71
2022/11/06 04:38:39;;;;;;;17.70;11.60;;;;;;;;;;5093637;28;20461;-71
2022/11/06 04:41:12;;;;;;;19.43;12.13;;;;;;;;;;5093995;28;20821;-71
2022/11/06 04:43:42;;;;;;;20.03;12.37;;;;;;;;;;5093062;28;20458;-71
2022/11/06 04:46:11;;;;;;;19.33;12.03;;;;;;;;;;5093463;28;20477;-71
2022/11/06 04:48:39;;;;;;;23.33;14.30;;;;;;;;;;5093407;28;20497;-72
2022/11/06 04:51:09;;;;;;;20.80;13.23;;;;;;;;;;5093545;28;20451;-71
2022/11/06 04:53:37;;;;;;;20.93;15.60;;;;;;;;;;5092925;28;20453;-71
2022/11/06 04:56:07;;;;;;;20.30;14.73;;;;;;;;;;5093425;28;20493;-71
2022/11/06 04:58:35;;;;;;;21.80;14.10;;;;;;;;;;5093320;28;20834;-71
2022/11/06 05:01:02;;;;;;;20.17;12.40;;;;;;;;;;5093582;28;20446;-71
2022/11/06 05:03:29;;;;;;;18.53;11.43;;;;;;;;;;5092828;28;20442;-71
2022/11/06 05:05:56;;;;;;;16.90;10.80;;;;;;;;;;5093047;28;20471;-71
2022/11/06 05:08:24;;;;;;;16.80;11.70;;;;;;;;;;5093087;28;20482;-71
2022/11/06 05:10:51;;;;;;;17.17;10.17;;;;;;;;;;5093137;28;20457;-71
2022/11/06 05:13:18;;;;;;;15.90;10.43;;;;;;;;;;5092823;28;20458;-72
2022/11/06 05:15:46;;;;;;;16.27;10.47;;;;;;;;;;5092421;28;20475;-71
2022/11/06 05:18:13;;;;;;;13.43;9.97;;;;;;;;;;5092985;28;20450;-71
2022/11/06 05:20:41;;;;;;;16.40;10.63;;;;;;;;;;5092915;28;20636;-71
2022/11/06 05:23:07;;;;;;;12.83;9.87;;;;;;;;;;5093025;28;20450;-71
2022/11/06 05:25:37;;;;;;;14.67;9.93;;;;;;;;;;5089584;28;20463;-71
2022/11/06 05:28:05;;;;;;;15.70;8.70;;;;;;;;;;5092992;28;20511;-71
2022/11/06 05:30:33;;;;;;;16.83;12.17;;;;;;;;;;5092778;28;20476;-71
2022/11/06 05:33:00;;;;;;;13.97;9.50;;;;;;;;;;5093031;28;20457;-71
2022/11/06 05:35:28;;;;;;;13.93;8.97;;;;;;;;;;5092108;28;20974;-71
2022/11/06 05:37:59;;;;;;;16.50;11.00;;;;;;;;;;5092717;28;20951;-71
2022/11/06 05:40:26;;;;;;;14.40;9.63;;;;;;;;;;5092657;28;20443;-71
2022/11/06 05:42:54;;;;;;;15.50;10.10;;;;;;;;;;5092531;28;20443;-71
2022/11/06 05:45:22;;;;;;;14.43;10.40;;;;;;;;;;5091940;28;20446;-71
2022/11/06 05:47:49;;;;;;;15.60;10.83;;;;;;;;;;5092733;28;20443;-71
2022/11/06 05:50:16;;;;;;;15.87;10.17;;;;;;;;;;5092454;28;20862;-71
2022/11/06 05:52:43;;;;;;;21.07;12.90;;;;;;;;;;5092388;28;20443;-71
2022/11/06 05:55:10;;;;;;;21.70;14.50;;;;;;;;;;5091963;28;20447;-71
2022/11/06 05:57:37;;;;;;;25.50;16.07;;;;;;;;;;5092439;28;20457;-71
2022/11/06 06:00:07;;;;;;;25.63;14.50;;;;;;;;;;5092518;28;20967;-71
2022/11/06 06:02:34;;;;;;;23.83;14.00;;;;;;;;;;5092290;28;20462;-71
2022/11/06 06:05:02;;;;;;;20.80;14.60;;;;;;;;;;5091656;28;20473;-71
2022/11/06 06:07:29;;;;;;;29.87;19.80;;;;;;;;;;5092318;28;20483;-71
2022/11/06 06:09:56;;;;;;;21.63;14.00;;;;;;;;;;5092237;28;20492;-71
2022/11/06 06:12:25;;;;;;;18.37;12.90;;;;;;;;;;5092287;28;20454;-71
2022/11/06 06:14:52;;;;;;;17.60;11.50;;;;;;;;;;5091529;28;20470;-71
2022/11/06 06:17:20;;;;;;;13.40;10.27;;;;;;;;;;5092208;28;20467;-71
2022/11/06 06:19:48;;;;;;;19.17;11.63;;;;;;;;;;5092173;28;20936;-71
2022/11/06 06:22:15;;;;;;;25.37;16.90;;;;;;;;;;5092355;28;20453;-71
2022/11/06 06:24:42;;;;;;;13.77;10.80;;;;;;;;;;5088703;28;20775;-71
2022/11/06 06:27:09;;;;;;;13.80;10.20;;;;;;;;;;5092225;28;20979;-71
2022/11/06 06:29:36;;;;;;;14.07;10.10;;;;;;;;;;5092204;28;20493;-71
2022/11/06 06:32:04;;;;;;;17.43;11.67;;;;;;;;;;5092204;28;20447;-71
2022/11/06 06:34:32;;;;;;;16.57;11.70;;;;;;;;;;5091505;28;20453;-71
2022/11/06 06:37:00;;;;;;;19.90;12.90;;;;;;;;;;5092095;28;20842;-71
2022/11/06 06:39:27;;;;;;;18.20;12.30;;;;;;;;;;5091986;28;20451;-71
2022/11/06 06:41:54;;;;;;;14.67;9.77;;;;;;;;;;5092083;28;20455;-71
2022/11/06 06:44:21;;;;;;;15.50;10.67;;;;;;;;;;5091508;28;20453;-71
2022/11/06 06:46:48;;;;;;;17.50;12.50;;;;;;;;;;5091914;28;20467;-71
2022/11/06 06:49:15;;;;;;;15.50;10.70;;;;;;;;;;5091976;28;20484;-71
2022/11/06 06:51:43;;;;;;;13.07;10.00;;;;;;;;;;5092186;28;20452;-71
2022/11/06 06:54:11;;;;;;;16.37;10.70;;;;;;;;;;5091408;28;20955;-71
2022/11/06 06:56:38;;;;;;;14.53;12.17;;;;;;;;;;5094586;28;20478;-71
2022/11/06 06:59:05;;;;;;;24.33;16.50;;;;;;;;;;5095633;28;20453;-71
2022/11/06 07:01:32;;;;;;;14.60;10.83;;;;;;;;;;5095584;28;20800;-71
2022/11/06 07:03:59;;;;;;;20.00;13.53;;;;;;;;;;5094715;28;20450;-71
2022/11/06 07:06:27;;;;;;;14.73;11.40;;;;;;;;;;5074700;28;20486;-71
2022/11/06 07:08:56;;;;;;;25.07;16.17;;;;;;;;;;5075137;28;20462;-71
2022/11/06 07:11:23;;;;;;;20.30;14.83;;;;;;;;;;5075154;28;20462;-71
2022/11/06 07:13:50;;;;;;;23.43;15.70;;;;;;;;;;5074347;28;20803;-71
2022/11/06 07:16:20;;;;;;;39.70;26.23;;;;;;;;;;5075096;28;20472;-71
2022/11/06 07:18:47;;;;;;;20.00;13.17;;;;;;;;;;5075000;28;20466;-71
2022/11/06 07:21:14;;;;;;;92.77;65.47;;;;;;;;;;5075013;28;20949;-71
2022/11/06 07:23:41;;;;;;;12.80;9.13;;;;;;;;;;5074548;28;20459;-71
2022/11/06 07:26:10;;;;;;;14.60;10.87;;;;;;;;;;5072964;28;20468;-71
2022/11/06 07:28:37;;;;;;;10.30;8.50;;;;;;;;;;5074520;28;20453;-71
2022/11/06 07:31:06;;;;;;;12.07;9.63;;;;;;;;;;5074784;28;20487;-71
2022/11/06 07:33:33;;;;;;;13.13;11.20;;;;;;;;;;5074074;28;20455;-71
2022/11/06 07:36:04;;;;;;;13.03;9.80;;;;;;;;;;5074754;28;20835;-71
2022/11/06 07:38:31;;;;;;;11.90;9.40;;;;;;;;;;5074748;28;20455;-71
2022/11/06 07:41:01;;;;;;;14.00;9.93;;;;;;;;;;5074601;28;20444;-71
2022/11/06 07:43:30;;;;;;;9.17;7.13;;;;;;;;;;5074036;28;20459;-72
2022/11/06 07:45:58;;;;;;;11.13;8.47;;;;;;;;;;5074433;28;20470;-72
2022/11/06 07:48:26;;;;;;;8.70;7.30;;;;;;;;;;5074593;28;20452;-71
2022/11/06 07:50:53;;;;;;;10.67;8.50;;;;;;;;;;5074417;28;20487;-71
2022/11/06 07:53:20;;;;;;;11.07;8.60;;;;;;;;;;5074426;28;20470;-72
2022/11/06 07:55:50;;;;;;;16.33;8.17;;;;;;;;;;5073918;28;20496;-71
2022/11/06 07:58:18;;;;;;;9.73;8.30;;;;;;;;;;5074378;28;20455;-72
2022/11/06 08:00:48;;;;;;;9.20;7.80;;;;;;;;;;5074312;28;20455;-71
2022/11/06 08:03:15;;;;;;;10.40;7.03;;;;;;;;;;5074365;28;20448;-71
2022/11/06 08:05:42;;;;;;;9.40;7.57;;;;;;;;;;5073285;28;20474;-71
2022/11/06 08:08:09;;;;;;;10.20;7.77;;;;;;;;;;5073178;28;20498;-71
2022/11/06 08:10:39;;;;;;;13.50;9.60;;;;;;;;;;5074046;28;20502;-71
2022/11/06 08:13:06;;;;;;;11.60;8.93;;;;;;;;;;5074020;28;20465;-71
2022/11/06 08:15:33;;;;;;;11.97;8.77;;;;;;;;;;5073212;28;20467;-71
2022/11/06 08:18:02;;;;;;;11.80;9.57;;;;;;;;;;5073987;28;20457;-72
2022/11/06 08:20:29;;;;;;;12.67;9.70;;;;;;;;;;5073866;28;20455;-71
2022/11/06 08:22:59;;;;;;;14.87;9.53;;;;;;;;;;5074194;28;20823;-71
2022/11/06 08:25:26;;;;;;;18.77;11.53;;;;;;;;;;5071209;28;20505;-71
2022/11/06 08:27:55;;;;;;;20.00;14.37;;;;;;;;;;5073655;28;20459;-71
2022/11/06 08:30:22;;;;;;;21.40;13.87;;;;;;;;;;5073882;28;20537;-71
2022/11/06 08:32:49;;;;;;;22.80;14.53;;;;;;;;;;5073636;28;20461;-71
2022/11/06 08:35:18;;;;;;;23.73;14.20;;;;;;;;;;5072917;28;20470;-71
2022/11/06 08:37:45;;;;;;;21.13;14.00;;;;;;;;;;5073440;28;20454;-71
2022/11/06 08:40:12;;;;;;;28.13;19.00;;;;;;;;;;5073609;28;20839;-71
2022/11/06 08:42:40;;;;;;;27.60;18.90;;;;;;;;;;5073479;28;20459;-71
2022/11/06 08:45:07;;;;;;;20.03;13.17;;;;;;;;;;5072898;28;20463;-71
2022/11/06 08:47:34;;;;;;;22.77;11.77;;;;;;;;;;5073190;28;20847;-72
2022/11/06 08:50:02;;;;;;;20.77;12.50;;;;;;;;;;5073243;28;20483;-71
2022/11/06 08:52:30;;;;;;;20.17;12.60;;;;;;;;;;5073334;28;20812;-71
2022/11/06 08:54:57;;;;;;;17.97;11.70;;;;;;;;;;5072487;28;20452;-71
2022/11/06 08:57:24;;;;;;;17.00;10.83;;;;;;;;;;5073164;28;20490;-71
2022/11/06 08:59:51;;;;;;;15.97;11.20;;;;;;;;;;5073069;28;20454;-71
2022/11/06 09:02:18;;;;;;;20.70;14.50;;;;;;;;;;5072770;28;20823;-71
2022/11/06 09:04:46;;;;;;;16.40;12.10;;;;;;;;;;5072669;28;20506;-71
2022/11/06 09:07:13;;;;;;;15.20;10.23;;;;;;;;;;5073005;28;20490;-71
2022/11/06 09:09:41;;;;;;;13.53;9.77;;;;;;;;;;5072679;28;20505;-71
2022/11/06 09:12:08;;;;;;;15.13;9.83;;;;;;;;;;5072905;28;20456;-71
2022/11/06 09:14:36;;;;;;;15.17;9.47;;;;;;;;;;5072198;28;20903;-71
2022/11/06 09:17:03;;;;;;;14.33;10.07;;;;;;;;;;5072854;28;20489;-71
2022/11/06 09:19:30;;;;;;;15.27;9.80;;;;;;;;;;5072336;28;20451;-71
2022/11/06 09:21:57;;;;;;;18.73;10.63;;;;;;;;;;5072788;28;20820;-71
2022/11/06 09:24:24;;;;;;;29.23;14.57;;;;;;;;;;5069950;28;20483;-71
2022/11/06 09:26:53;;;;;;;11.77;7.43;;;;;;;;;;5072370;28;20471;-71
2022/11/06 09:29:20;;;;;;;14.23;9.20;;;;;;;;;;5072477;28;20466;-71
2022/11/06 09:31:47;;;;;;;14.03;9.97;;;;;;;;;;5072665;28;20458;-70
2022/11/06 09:34:14;;;;;;;13.43;8.30;;;;;;;;;;5071975;28;20467;-71
2022/11/06 09:36:41;;;;;;;12.03;8.33;;;;;;;;;;5072527;28;20468;-71
2022/11/06 09:39:09;;;;;;;10.10;7.90;;;;;;;;;;5072684;28;20952;-71
2022/11/06 09:41:42;;;;;;;9.87;7.33;;;;;;;;;;5072377;28;20451;-71
2022/11/06 09:44:19;;;;;;;12.50;8.10;;;;;;;;;;5072019;28;20937;-71
2022/11/06 09:46:47;;;;;;;10.20;7.43;;;;;;;;;;5072187;28;20482;-71
2022/11/06 09:49:19;;;;;;;11.00;8.17;;;;;;;;;;5072461;28;20817;-71
2022/11/06 09:51:48;;;;;;;11.20;8.03;;;;;;;;;;5072221;28;20489;-72
2022/11/06 09:54:17;;;;;;;13.57;7.13;;;;;;;;;;5071669;28;20526;-71
2022/11/06 09:56:44;;;;;;;11.70;8.80;;;;;;;;;;5072068;28;20477;-71
2022/11/06 09:59:14;;;;;;;11.27;7.53;;;;;;;;;;5072142;28;20459;-71
2022/11/06 10:01:43;;;;;;;11.00;8.07;;;;;;;;;;5072349;28;20459;-71
2022/11/06 10:04:19;;;;;;;12.00;9.03;;;;;;;;;;5071889;28;20456;-71
2022/11/06 10:06:46;;;;;;;13.37;9.20;;;;;;;;;;5072074;28;20481;-71
2022/11/06 10:09:13;;;;;;;11.80;8.87;;;;;;;;;;5072391;28;20447;-71
2022/11/06 10:11:48;;;;;;;13.00;8.97;;;;;;;;;;5072088;28;20483;-72
2022/11/06 10:14:22;;;;;;;9.80;8.03;;;;;;;;;;5071667;28;20831;-71
2022/11/06 10:16:53;;;;;;;11.63;9.10;;;;;;;;;;5071944;28;20474;-71
2022/11/06 10:19:24;;;;;;;12.03;8.00;;;;;;;;;;5072287;28;20456;-71
2022/11/06 10:21:54;;;;;;;12.80;9.00;;;;;;;;;;5072289;28;20451;-71
2022/11/06 10:24:22;;;;;;;17.13;9.57;;;;;;;;;;5070038;28;20463;-72
2022/11/06 10:26:52;;;;;;;13.83;10.47;;;;;;;;;;5071708;28;20472;-71
2022/11/06 10:29:30;;;;;;;13.60;8.93;;;;;;;;;;5075131;28;20454;-71
2022/11/06 10:32:02;;;;;;;12.20;8.97;;;;;;;;;;5093529;28;20494;-71
2022/11/06 10:34:32;;;;;;;14.00;9.43;;;;;;;;;;5094187;28;20453;-71
2022/11/06 10:37:02;;;;;;;11.60;8.07;;;;;;;;;;5094044;28;21217;-71
2022/11/06 10:39:31;;;;;;;12.60;8.90;;;;;;;;;;5094092;28;20825;-71
2022/11/06 10:42:00;;;;;;;13.83;9.27;;;;;;;;;;5093430;28;20455;-71
2022/11/06 10:44:32;;;;;;;9.47;7.23;;;;;;;;;;5094607;28;20461;-72
2022/11/06 10:47:02;;;;;;;9.63;7.90;;;;;;;;;;5074793;28;20481;-71
2022/11/06 10:49:35;;;;;;;11.97;8.10;;;;;;;;;;5093865;28;20457;-71
2022/11/06 10:52:14;;;;;;;15.27;10.70;;;;;;;;;;5094172;28;20495;-71
2022/11/06 10:54:47;;;;;;;12.77;9.50;;;;;;;;;;5092930;28;20453;-71
2022/11/06 10:57:19;;;;;;;8.73;7.60;;;;;;;;;;5094394;28;20470;-71
2022/11/06 10:59:48;;;;;;;11.97;7.83;;;;;;;;;;5094145;28;20454;-72
2022/11/06 11:02:26;;;;;;;11.47;8.90;;;;;;;;;;5093843;28;20450;-71
2022/11/06 11:04:53;;;;;;;11.43;9.20;;;;;;;;;;5093222;28;20457;-72
2022/11/06 11:07:21;;;;;;;12.13;7.23;;;;;;;;;;5093698;28;20466;-72
2022/11/06 11:09:49;;;;;;;8.90;6.50;;;;;;;;;;5093526;28;20987;-71
2022/11/06 11:12:21;;;;;;;7.97;6.30;;;;;;;;;;5093794;28;20561;-71
2022/11/06 11:15:10;;;;;;;8.80;6.77;;;;;;;;;;5086077;28;20941;-72
2022/11/06 11:17:38;;;;;;;7.87;6.63;;;;;;;;;;5091493;28;20545;-72
2022/11/06 11:20:28;;;;;;;8.17;5.70;;;;;;;;;;5094113;28;20523;-71
2022/11/06 11:23:05;;;;;;;7.67;6.30;;;;;;;;;;5091802;28;20476;-72
2022/11/06 11:25:32;;;;;;;8.17;6.80;;;;;;;;;;5091561;28;20473;-71
2022/11/06 11:28:00;;;;;;;10.93;6.97;;;;;;;;;;5094051;28;20454;-72
2022/11/06 11:30:28;;;;;;;34.07;22.90;;;;;;;;;;5092710;28;20569;-72
2022/11/06 11:32:57;;;;;;;9.83;7.23;;;;;;;;;;5093427;28;20451;-71
2022/11/06 11:35:27;;;;;;;6.60;5.67;;;;;;;;;;5093139;28;20457;-72
2022/11/06 11:38:04;;;;;;;9.40;8.10;;;;;;;;;;5093195;28;20962;-71
2022/11/06 11:40:35;;;;;;;4.70;4.30;;;;;;;;;;5093587;28;20825;-71
2022/11/06 11:43:16;;;;;;;4.97;4.33;;;;;;;;;;5093211;28;20457;-71
2022/11/06 11:45:43;;;;;;;6.00;5.27;;;;;;;;;;5092206;28;20470;-71
2022/11/06 11:48:14;;;;;;;6.47;5.80;;;;;;;;;;5093385;28;20465;-71
2022/11/06 11:50:41;;;;;;;5.00;4.50;;;;;;;;;;5092685;28;21045;-71
2022/11/06 11:53:12;;;;;;;7.40;6.70;;;;;;;;;;5092773;28;20781;-71
2022/11/06 11:55:41;;;;;;;31.80;27.17;;;;;;;;;;5093195;28;20494;-71
2022/11/06 11:58:16;;;;;;;23.50;19.23;;;;;;;;;;5094105;28;20450;-71
2022/11/06 12:00:49;;;;;;;15.93;12.40;;;;;;;;;;5094426;28;20453;-71
2022/11/06 12:03:18;;;;;;;18.03;12.63;;;;;;;;;;5094646;28;20968;-71
2022/11/06 12:05:46;;;;;;;17.47;14.40;;;;;;;;;;5093909;28;20843;-71
2022/11/06 12:08:15;;;;;;;14.67;11.30;;;;;;;;;;5094593;28;20462;-71
2022/11/06 12:10:43;;;;;;;98.60;79.47;;;;;;;;;;5094143;28;20850;-71
2022/11/06 12:13:15;;;;;;;14.00;9.30;;;;;;;;;;5094202;28;20990;-71
2022/11/06 12:15:46;;;;;;;13.70;10.30;;;;;;;;;;5093747;28;20975;-71
2022/11/06 12:18:15;;;;;;;18.80;15.97;;;;;;;;;;5094311;28;20446;-71
2022/11/06 12:20:46;;;;;;;26.10;20.50;;;;;;;;;;5094241;28;20447;-71
2022/11/06 12:23:16;;;;;;;16.00;12.80;;;;;;;;;;5093928;28;20798;-71
2022/11/06 12:25:45;;;;;;;11.70;8.33;;;;;;;;;;5091650;28;20486;-71
2022/11/06 12:28:15;;;;;;;20.50;16.30;;;;;;;;;;5094028;28;20451;-71
2022/11/06 12:30:45;;;;;;;16.00;9.17;;;;;;;;;;5093764;28;20577;-71
2022/11/06 12:33:14;;;;;;;17.87;11.90;;;;;;;;;;5093952;28;20828;-71
2022/11/06 12:35:42;;;;;;;20.83;13.10;;;;;;;;;;5093137;28;20473;-71
2022/11/06 12:38:18;;;;;;;12.80;10.20;;;;;;;;;;5093912;28;20855;-71
2022/11/06 12:40:47;;;;;;;16.07;9.50;;;;;;;;;;5093714;28;20442;-71
2022/11/06 12:43:17;;;;;;;22.13;11.33;;;;;;;;;;5093806;28;20446;-71
2022/11/06 12:45:52;;;;;;;15.60;11.80;;;;;;;;;;5093135;28;20472;-71
2022/11/06 12:48:25;;;;;;;17.37;11.43;;;;;;;;;;5093708;28;20826;-71
2022/11/06 12:50:56;;;;;;;22.00;13.27;;;;;;;;;;5093532;28;20490;-71
2022/11/06 12:53:31;;;;;;;18.23;10.67;;;;;;;;;;5092601;28;20462;-72
2022/11/06 12:56:01;;;;;;;17.10;12.10;;;;;;;;;;5093610;28;20476;-71
2022/11/06 12:58:42;;;;;;;14.57;10.60;;;;;;;;;;5093422;28;20443;-71
2022/11/06 13:01:13;;;;;;;15.33;10.90;;;;;;;;;;5093776;28;20508;-71
2022/11/06 13:03:58;;;;;;;11.70;8.40;;;;;;;;;;5092846;28;20469;-71
2022/11/06 13:06:31;;;;;;;20.73;14.00;;;;;;;;;;5093492;28;20484;-71
2022/11/06 13:09:03;;;;;;;21.33;11.77;;;;;;;;;;5093369;28;20461;-71
2022/11/06 13:11:34;;;;;;;16.57;11.80;;;;;;;;;;5093210;28;20568;-71
2022/11/06 13:14:07;;;;;;;18.40;11.37;;;;;;;;;;5092796;28;20959;-71
2022/11/06 13:16:39;;;;;;;77.73;43.10;;;;;;;;;;5093060;28;20478;-69
2022/11/06 13:19:11;;;;;;;18.70;13.67;;;;;;;;;;5093198;28;20459;-69
2022/11/06 13:21:57;;;;;;;17.90;12.73;;;;;;;;;;5092957;28;20501;-72
2022/11/06 13:24:29;;;;;;;16.87;10.53;;;;;;;;;;5091194;28;20828;-71
2022/11/06 13:27:00;;;;;;;22.40;13.60;;;;;;;;;;5092781;28;21013;-70
2022/11/06 13:29:27;;;;;;;23.30;17.70;;;;;;;;;;5092968;28;20458;-70
2022/11/06 13:31:56;;;;;;;11.53;7.87;;;;;;;;;;5092949;28;21026;-71
2022/11/06 13:34:25;;;;;;;13.10;9.10;;;;;;;;;;5092431;28;20442;-70
2022/11/06 13:36:53;;;;;;;12.50;9.30;;;;;;;;;;5092926;28;20514;-70
2022/11/06 13:39:22;;;;;;;13.30;8.70;;;;;;;;;;5092888;28;20538;-71
2022/11/06 13:41:52;;;;;;;13.83;9.23;;;;;;;;;;5092746;28;21004;-70
2022/11/06 13:44:20;;;;;;;15.03;8.57;;;;;;;;;;5092317;28;20450;-70
2022/11/06 13:46:51;;;;;;;12.90;9.23;;;;;;;;;;5093005;28;20474;-70
2022/11/06 13:49:23;;;;;;;15.50;10.77;;;;;;;;;;5092781;28;20983;-70
2022/11/06 13:51:52;;;;;;;12.83;9.10;;;;;;;;;;5092218;28;20878;-70
2022/11/06 13:54:24;;;;;;;10.83;7.20;;;;;;;;;;5092118;28;20457;-70
2022/11/06 13:57:14;;;;;;;15.20;11.00;;;;;;;;;;5092677;28;20469;-71
2022/11/06 13:59:53;;;;;;;13.20;9.13;;;;;;;;;;5092352;28;20457;-70
2022/11/06 14:02:32;;;;;;;13.50;9.10;;;;;;;;;;5092708;28;20844;-70
2022/11/06 14:05:26;;;;;;;19.17;9.80;;;;;;;;;;5092089;28;20551;-70
2022/11/06 14:07:54;;;;;;;15.93;10.77;;;;;;;;;;5056551;28;20450;-70
2022/11/06 14:10:22;;;;;;;18.77;11.00;;;;;;;;;;5092546;28;20825;-70
2022/11/06 14:12:51;;;;;;;19.07;10.67;;;;;;;;;;5092110;28;20496;-70
2022/11/06 14:15:25;;;;;;;17.90;10.80;;;;;;;;;;5088301;28;20474;-71
2022/11/06 14:17:56;;;;;;;20.37;10.30;;;;;;;;;;5071342;28;20467;-70
2022/11/06 14:20:32;;;;;;;17.20;11.20;;;;;;;;;;5072147;28;20471;-70
2022/11/06 14:23:18;;;;;;;15.27;9.80;;;;;;;;;;5073588;28;20446;-70
2022/11/06 14:25:46;;;;;;;16.93;10.80;;;;;;;;;;5067426;28;20956;-70
2022/11/06 14:28:28;;;;;;;16.60;10.80;;;;;;;;;;5070370;28;20950;-70
2022/11/06 14:30:56;;;;;;;17.50;11.67;;;;;;;;;;5070500;28;20521;-70
2022/11/06 14:33:41;;;;;;;21.47;10.27;;;;;;;;;;5082534;28;20549;-71
2022/11/06 14:36:26;;;;;;;19.80;12.47;;;;;;;;;;5089845;28;20587;-70
2022/11/06 14:38:53;;;;;;;20.33;11.40;;;;;;;;;;5090204;28;20955;-70
2022/11/06 14:41:48;;;;;;;19.90;10.80;;;;;;;;;;5090735;28;20482;-70
2022/11/06 14:44:24;;;;;;;21.27;11.10;;;;;;;;;;5088729;28;20442;-70
2022/11/06 14:46:52;;;;;;;17.27;10.30;;;;;;;;;;5090488;28;20476;-70
2022/11/06 14:49:22;;;;;;;17.00;10.80;;;;;;;;;;5090947;28;20511;-70